createdAt,value
2022-10-18T00:04:48.210Z,16.73
2022-10-18T00:10:19.157Z,16.58
2022-10-18T00:15:58.493Z,15.25
2022-10-18T00:21:29.832Z,18.55
2022-10-18T00:27:00.986Z,15.20
2022-10-18T00:32:32.079Z,14.98
2022-10-18T00:38:03.280Z,16.42
2022-10-18T00:44:10.967Z,13.98
2022-10-18T00:49:50.723Z,15.00
2022-10-18T00:55:22.061Z,15.45
2022-10-18T01:00:53.140Z,16.75
2022-10-18T01:06:24.307Z,16.38
2022-10-18T01:12:08.179Z,17.02
2022-10-18T01:17:48.341Z,15.20
2022-10-18T01:23:33.959Z,16.65
2022-10-18T01:29:32.365Z,16.45
2022-10-18T01:35:07.295Z,16.27
2022-10-18T01:40:40.242Z,17.98
2022-10-18T01:46:14.970Z,17.73
2022-10-18T01:51:46.000Z,18.15
2022-10-18T01:57:29.107Z,14.70
2022-10-18T02:03:15.019Z,16.00
2022-10-18T02:09:03.988Z,15.88
2022-10-18T02:14:35.315Z,16.42
2022-10-18T02:20:09.352Z,17.67
2022-10-18T02:25:40.671Z,16.02
2022-10-18T02:31:17.787Z,17.08
2022-10-18T02:36:53.052Z,16.70
2022-10-18T02:42:24.045Z,16.40
2022-10-18T02:47:55.069Z,15.77
2022-10-18T02:53:26.238Z,16.00
2022-10-18T02:58:57.129Z,16.30
2022-10-18T03:10:05.056Z,13.82
2022-10-18T03:15:36.304Z,14.13
2022-10-18T03:21:08.275Z,13.43
2022-10-18T03:26:39.267Z,13.55
2022-10-18T03:32:10.271Z,12.80
2022-10-18T03:37:41.492Z,14.10
2022-10-18T03:43:12.424Z,12.50
2022-10-18T03:48:43.466Z,12.63
2022-10-18T03:54:14.777Z,12.07
2022-10-18T03:59:45.642Z,12.02
2022-10-18T04:05:16.748Z,12.50
2022-10-18T04:10:48.098Z,11.35
2022-10-18T04:16:19.442Z,10.70
2022-10-18T04:21:50.693Z,11.00
2022-10-18T04:27:22.051Z,10.70
2022-10-18T04:32:52.934Z,11.27
2022-10-18T04:38:24.023Z,12.80
2022-10-18T04:43:55.319Z,11.15
2022-10-18T04:49:26.182Z,10.85
2022-10-18T04:54:57.061Z,9.48
2022-10-18T05:00:27.723Z,10.38
2022-10-18T05:06:03.140Z,9.88
2022-10-18T05:11:34.881Z,10.00
2022-10-18T05:17:06.815Z,10.35
2022-10-18T05:22:37.784Z,9.43
2022-10-18T05:28:11.104Z,8.88
2022-10-18T05:33:46.535Z,9.23
2022-10-18T05:39:17.492Z,10.10
2022-10-18T05:44:48.810Z,10.65
2022-10-18T05:50:19.920Z,8.50
2022-10-18T05:55:50.971Z,8.13
2022-10-18T06:01:22.500Z,7.68
2022-10-18T06:06:54.199Z,8.20
2022-10-18T06:12:25.225Z,8.70
2022-10-18T06:17:56.447Z,7.63
2022-10-18T06:23:28.218Z,7.47
2022-10-18T06:28:59.509Z,7.72
2022-10-18T06:34:31.204Z,7.43
2022-10-18T06:40:02.234Z,6.75
2022-10-18T06:45:33.691Z,7.45
2022-10-18T06:51:06.392Z,6.88
2022-10-18T06:56:37.461Z,7.33
2022-10-18T07:02:10.360Z,7.07
2022-10-18T07:07:41.550Z,7.67
2022-10-18T07:13:31.605Z,7.50
2022-10-18T07:19:03.956Z,7.38
2022-10-18T07:24:35.482Z,6.40
2022-10-18T07:30:08.444Z,6.75
2022-10-18T07:35:39.478Z,6.63
2022-10-18T07:41:12.333Z,9.45
2022-10-18T07:46:43.384Z,8.05
2022-10-18T07:52:14.392Z,6.80
2022-10-18T07:57:45.289Z,6.53
2022-10-18T08:03:16.411Z,6.00
2022-10-18T08:08:47.493Z,6.47
2022-10-18T08:14:18.769Z,6.72
2022-10-18T08:20:04.709Z,6.07
2022-10-18T08:25:41.121Z,5.68
2022-10-18T08:31:14.383Z,5.72
2022-10-18T08:42:23.904Z,7.40
2022-10-18T08:47:57.756Z,5.18
2022-10-18T08:53:41.130Z,8.27
2022-10-18T08:59:13.211Z,5.80
2022-10-18T09:04:49.890Z,6.47
2022-10-18T09:10:44.929Z,5.00
2022-10-18T09:16:28.913Z,5.60
2022-10-18T09:22:10.713Z,5.50
2022-10-18T09:27:53.958Z,4.80
2022-10-18T09:33:39.667Z,5.40
2022-10-18T09:39:16.026Z,5.40
2022-10-18T09:45:04.379Z,5.97
2022-10-18T09:50:53.782Z,6.10
2022-10-18T09:56:30.927Z,5.45
2022-10-18T10:02:02.230Z,7.15
2022-10-18T10:07:43.609Z,5.72
2022-10-18T10:13:18.017Z,6.45
2022-10-18T10:18:54.099Z,6.95
2022-10-18T10:24:46.800Z,6.50
2022-10-18T10:30:28.908Z,7.03
2022-10-18T10:36:00.887Z,5.63
2022-10-18T10:47:03.903Z,7.30
2022-10-18T10:52:35.107Z,6.43
2022-10-18T10:58:14.705Z,7.13
2022-10-18T11:03:48.232Z,8.73
2022-10-18T11:09:28.495Z,7.45
2022-10-18T11:15:10.391Z,9.02
2022-10-18T11:20:57.095Z,8.20
2022-10-18T11:27:09.081Z,8.27
2022-10-18T11:33:00.916Z,6.93
2022-10-18T11:38:42.380Z,8.95
2022-10-18T11:44:19.324Z,8.93
2022-10-18T11:50:02.978Z,8.45
2022-10-18T11:55:36.747Z,6.95
2022-10-18T12:01:34.617Z,7.00
2022-10-18T12:07:07.826Z,6.70
2022-10-18T12:13:02.308Z,8.52
2022-10-18T12:18:46.497Z,7.10
2022-10-18T12:24:25.685Z,7.80
2022-10-18T12:30:04.572Z,7.50
2022-10-18T12:35:54.678Z,6.63
2022-10-18T12:41:34.358Z,7.60
2022-10-18T12:47:06.108Z,6.18
2022-10-18T12:52:37.413Z,9.85
2022-10-18T12:58:15.017Z,6.95
2022-10-18T13:03:55.141Z,8.23
2022-10-18T13:09:40.778Z,6.65
2022-10-18T13:15:26.292Z,7.80
2022-10-18T13:21:17.607Z,7.45
2022-10-18T13:27:24.054Z,7.10
2022-10-18T13:33:22.357Z,8.38
2022-10-18T13:39:02.763Z,7.85
2022-10-18T13:44:38.048Z,7.60
2022-10-18T13:50:30.453Z,11.23
2022-10-18T13:56:13.856Z,6.75
2022-10-18T14:02:49.885Z,7.43
2022-10-18T14:08:21.290Z,6.30
2022-10-18T14:14:00.401Z,8.88
2022-10-18T14:19:44.986Z,10.65
2022-10-18T14:25:20.528Z,8.82
2022-10-18T14:30:58.269Z,7.45
2022-10-18T14:36:41.985Z,6.65
2022-10-18T14:42:21.323Z,7.88
2022-10-18T14:47:52.415Z,8.10
2022-10-18T14:53:25.398Z,8.52
2022-10-18T14:59:03.262Z,7.07
2022-10-18T15:04:34.426Z,5.93
2022-10-18T15:10:11.159Z,7.15
2022-10-18T15:15:47.411Z,6.82
2022-10-18T15:21:24.203Z,8.00
2022-10-18T15:27:00.117Z,6.65
2022-10-18T15:32:32.042Z,7.40
2022-10-18T15:38:26.386Z,6.57
2022-10-18T15:44:11.560Z,5.57
2022-10-18T15:49:45.387Z,7.70
2022-10-18T15:55:31.730Z,6.50
2022-10-18T16:01:04.612Z,6.35
2022-10-18T16:06:39.023Z,5.67
2022-10-18T16:12:10.341Z,5.88
2022-10-18T16:17:41.818Z,6.47
2022-10-18T16:23:22.706Z,7.65
2022-10-18T16:28:55.110Z,6.18
2022-10-18T16:34:27.509Z,6.15
2022-10-18T16:39:58.691Z,5.60
2022-10-18T16:45:30.016Z,7.25
2022-10-18T16:51:01.242Z,8.45
2022-10-18T16:56:32.874Z,9.52
2022-10-18T17:02:09.290Z,7.25
2022-10-18T17:07:40.171Z,7.03
2022-10-18T17:13:11.739Z,6.90
2022-10-18T17:18:42.835Z,6.78
2022-10-18T17:24:14.102Z,10.45
2022-10-18T17:29:45.207Z,7.28
2022-10-18T17:35:16.502Z,6.40
2022-10-18T17:40:52.935Z,5.88
2022-10-18T17:46:24.228Z,9.00
2022-10-18T17:51:55.492Z,7.85
2022-10-18T17:57:26.849Z,7.60
2022-10-18T18:02:59.343Z,7.00
2022-10-18T18:08:31.390Z,5.77
2022-10-18T18:14:03.125Z,5.25
2022-10-18T18:19:34.881Z,5.82
2022-10-18T18:25:06.496Z,6.05
2022-10-18T18:30:40.084Z,6.25
2022-10-18T18:36:11.650Z,6.85
2022-10-18T18:41:42.759Z,6.07
2022-10-18T18:47:13.932Z,6.25
2022-10-18T18:52:45.100Z,7.95
2022-10-18T18:58:16.736Z,6.40
2022-10-18T19:03:49.901Z,6.18
2022-10-18T19:09:24.125Z,4.93
2022-10-18T19:14:55.162Z,6.55
2022-10-18T19:20:26.117Z,7.22
2022-10-18T19:26:12.321Z,6.10
2022-10-18T19:31:43.402Z,7.43
2022-10-18T19:37:15.795Z,7.45
2022-10-18T19:42:46.877Z,6.40
2022-10-18T19:48:17.824Z,6.80
2022-10-18T19:53:48.985Z,7.10
2022-10-18T19:59:22.814Z,5.78
2022-10-18T20:04:54.366Z,5.85
2022-10-18T20:10:25.224Z,6.57
2022-10-18T20:15:56.184Z,6.25
2022-10-18T20:21:28.711Z,4.80
2022-10-18T20:27:00.130Z,5.68
2022-10-18T20:32:31.165Z,5.78
2022-10-18T20:38:02.130Z,6.38
2022-10-18T20:43:34.764Z,6.68
2022-10-18T20:49:07.370Z,4.35
2022-10-18T20:54:38.229Z,4.15
2022-10-18T21:00:11.765Z,4.97
2022-10-18T21:11:14.283Z,3.83
2022-10-18T21:16:45.811Z,4.32
2022-10-18T21:22:17.056Z,4.43
2022-10-18T21:27:47.947Z,3.53
2022-10-18T21:33:18.824Z,4.78
2022-10-18T21:38:49.833Z,4.85
2022-10-18T21:44:20.967Z,4.65
2022-10-18T21:49:52.294Z,3.83
2022-10-18T21:55:23.637Z,4.85
2022-10-18T22:00:54.877Z,5.25
2022-10-18T22:06:29.464Z,4.25
2022-10-18T22:12:00.982Z,3.72
2022-10-18T22:17:32.532Z,3.83
2022-10-18T22:23:04.325Z,4.35
2022-10-18T22:28:36.175Z,4.88
2022-10-18T22:34:18.261Z,4.38
2022-10-18T22:39:49.464Z,4.45
2022-10-18T22:45:20.297Z,2.85
2022-10-18T22:50:51.296Z,4.13
2022-10-18T22:56:23.690Z,4.65
2022-10-18T23:01:54.722Z,4.05
2022-10-18T23:07:25.536Z,3.75
2022-10-18T23:12:56.552Z,3.67
2022-10-18T23:18:27.641Z,3.20
2022-10-18T23:23:58.584Z,3.25
2022-10-18T23:29:29.824Z,3.55
2022-10-18T23:35:00.935Z,4.38
2022-10-18T23:40:31.830Z,3.38
2022-10-18T23:46:02.839Z,3.28
2022-10-18T23:51:34.060Z,3.47
2022-10-18T23:57:05.075Z,3.10
